Manassas, GA (30438)

11:41 AM EDT on May 05, 2015 (GMT -0400)
Claxton-Evans County | | Change Station
CLOSE
Current Station
Airport
Location: Claxton,
Elevation: 112 ft
Nearby Weather Stations
Active Advisory: Flood Warning

Elev 112 ft 32.20 °N, 81.87 °W | Updated 46 minutes ago

Partly Cloudy
Partly Cloudy
73 °F
Feels Like 73 °F
N
9
Wind Variable Wind from ENE
Gusts 16 mph

Today
High -- | Low -- °F
--% Chance of Precip.
Yesterday
High -- | Low -- °F
Precip. -- in
6:38 AM 8:11 PM
Full, 98% visible
Pressure 30.31 in
Visibility 10.0 miles
Clouds Clear
Dew Point 59 °F
Humidity 61%
Rainfall 0.00 in
Snow Depth Not available.
UV 9 out of 12
Pollen 6.40 out of 12
Air Quality Not available.
Flu Activity Sporadic
METAR KCWV 051455Z AUTO 07008G14KT 10SM CLR 23/15 A3031 RMK AO2

More Conditions Fewer Conditions

Pressure 30.31 in
Visibility 10.0 miles
Clouds Clear
Dew Point 59 °F
Humidity 61%
Rainfall 0.00 in
Snow Depth Not available.
UV 9 out of 12
Pollen 6.40 out of 12
Air Quality Not available.
Flu Activity Sporadic
METAR KCWV 051455Z AUTO 07008G14KT 10SM CLR 23/15 A3031 RMK AO2

More Conditions Fewer Conditions

10-Day Weather Forecast

Almanac

Astronomy

May. 05, 2015 Rise Set
Actual Time
Civil Twilight
Nautical Twilight
Astronomical Twilight
Moon
Length of Visible Light
Length of Day
Tomorrow will be .
, % of the Moon is Illuminated

Today's Extremes

State Highs State Lows

Community

WunderPhotos

Upload Photos

1,818,922 photos uploaded!

WunderBlogs® & News

Nearby

Air Quality

  Air Quality AQ Index Pollutant
Not available.

Snow Depth

Station Depth Elevation

Earthquake Activity

City Distance Mag. Time & Date
Minimum magnitude displayed is 2.5.

Coastal Water Temperatures

Place Temperature

Stations

Nearby Weather Stations

Station Location Temp. Windchill Dew Point Humidity Wind Precip. Elev Updated Type
                   
Flood Warning
Statement as of 10:31 AM EDT on May 05, 2015

The Flood Warning continues for
the Altamaha river at Baxley.
* Until Wednesday afternoon... or until the warning is cancelled.
* At 9:45 am Tuesday the stage was 75.5 feet.
* Minor flooding is occurring and minor flooding is forecast.
* Flood stage is 74.5 feet.
* Forecast... the river will continue to fall to below flood stage by
tomorrow late morning.
* Impact... at 74.5 feet... minor flooding of Timber and agricultural
land can be expected.





               Fld observed 7am EST / 8am EDT forecast
location stg stg day time Wed Thu Fri Sat sun

Altamaha
Baxley 74 75.5 Tue 10 am 74.6 73.9 73.3 72.6 72.0




Lat... Lon 3194 8243 3188 8222 3176 8199 3183 8195 3193 8213 3200 8243